createdAt,value
2022-08-22T00:02:14.649Z,18.27
2022-08-22T00:03:01.812Z,18.49
2022-08-22T00:03:11.173Z,17.83
2022-08-22T00:04:54.386Z,18.24
2022-08-22T00:07:30.965Z,18.20
2022-08-22T00:10:05.112Z,18.17
2022-08-22T00:12:38.553Z,18.14
2022-08-22T00:15:16.393Z,18.10
2022-08-22T00:18:05.818Z,18.07
2022-08-22T00:20:41.331Z,18.04
2022-08-22T00:23:17.372Z,18.03
2022-08-22T00:25:55.432Z,18.02
2022-08-22T00:28:29.126Z,17.98
2022-08-22T00:31:03.426Z,17.96
2022-08-22T00:33:42.377Z,17.94
2022-08-22T00:36:22.843Z,17.89
2022-08-22T00:38:59.749Z,17.86
2022-08-22T00:41:46.215Z,17.84
2022-08-22T00:44:51.917Z,17.82
2022-08-22T00:47:45.576Z,17.78
2022-08-22T00:50:35.302Z,17.74
2022-08-22T00:53:32.552Z,17.70
2022-08-22T00:56:20.154Z,17.66
2022-08-22T00:59:18.205Z,17.63
2022-08-22T01:01:58.345Z,17.61
2022-08-22T01:04:41.366Z,17.58
2022-08-22T01:07:24.469Z,17.55
2022-08-22T01:10:14.634Z,17.53
2022-08-22T01:12:55.935Z,17.51
2022-08-22T01:15:26.895Z,17.49
2022-08-22T01:18:30.939Z,17.47
2022-08-22T01:21:38.001Z,17.43
2022-08-22T01:25:04.242Z,17.40
2022-08-22T01:28:11.777Z,17.36
2022-08-22T01:31:18.539Z,17.31
2022-08-22T01:34:29.460Z,17.27
2022-08-22T01:37:26.746Z,17.21
2022-08-22T01:40:29.580Z,17.14
2022-08-22T01:43:07.755Z,17.07
2022-08-22T01:45:51.195Z,17.02
2022-08-22T01:48:23.099Z,16.98
2022-08-22T01:50:55.738Z,16.95
2022-08-22T01:53:27.121Z,16.93
2022-08-22T01:56:04.819Z,16.90
2022-08-22T01:58:36.774Z,16.87
2022-08-22T02:01:13.849Z,16.88
2022-08-22T02:03:53.421Z,16.80
2022-08-22T02:06:33.559Z,16.77
2022-08-22T02:09:07.288Z,16.73
2022-08-22T02:11:41.381Z,16.70
2022-08-22T02:14:23.751Z,16.71
2022-08-22T02:16:57.401Z,16.64
2022-08-22T02:19:37.821Z,16.61
2022-08-22T02:22:26.598Z,16.55
2022-08-22T02:25:04.334Z,16.49
2022-08-22T02:27:47.569Z,16.43
2022-08-22T02:30:18.073Z,16.38
2022-08-22T02:32:56.426Z,16.32
2022-08-22T02:35:31.974Z,16.27
2022-08-22T02:38:13.207Z,16.22
2022-08-22T02:40:44.669Z,16.16
2022-08-22T02:43:24.768Z,16.12
2022-08-22T02:45:57.538Z,16.08
2022-08-22T02:48:37.211Z,16.05
2022-08-22T02:51:11.511Z,15.99
2022-08-22T02:53:54.185Z,15.94
2022-08-22T02:56:31.462Z,15.88
2022-08-22T02:59:15.557Z,15.83
2022-08-22T03:01:45.524Z,15.78
2022-08-22T03:04:22.826Z,15.75
2022-08-22T03:07:12.577Z,15.71
2022-08-22T03:09:49.141Z,15.65
2022-08-22T03:12:25.965Z,15.59
2022-08-22T03:15:03.332Z,15.54
2022-08-22T03:17:35.935Z,15.49
2022-08-22T03:20:10.274Z,15.44
2022-08-22T03:22:45.667Z,15.40
2022-08-22T03:25:27.546Z,15.37
2022-08-22T03:28:01.918Z,15.33
2022-08-22T03:30:34.787Z,15.29
2022-08-22T03:33:17.235Z,15.23
2022-08-22T03:35:59.653Z,15.16
2022-08-22T03:38:38.838Z,15.08
2022-08-22T03:41:39.118Z,15.04
2022-08-22T03:44:50.519Z,14.99
2022-08-22T03:47:52.300Z,14.93
2022-08-22T03:50:40.609Z,14.88
2022-08-22T03:53:46.915Z,14.83
2022-08-22T03:56:44.890Z,14.79
2022-08-22T03:59:44.497Z,14.75
2022-08-22T04:02:43.411Z,14.72
2022-08-22T04:05:36.595Z,14.67
2022-08-22T04:08:43.871Z,14.64
2022-08-22T04:11:38.807Z,14.60
2022-08-22T04:14:51.753Z,14.56
2022-08-22T04:17:40.517Z,14.52
2022-08-22T04:20:21.737Z,14.49
2022-08-22T04:23:00.428Z,14.47
2022-08-22T04:25:36.356Z,14.43
2022-08-22T04:28:09.786Z,14.42
2022-08-22T04:30:46.177Z,14.40
2022-08-22T04:33:20.113Z,14.37
2022-08-22T04:36:00.677Z,14.34
2022-08-22T04:38:33.373Z,14.32
2022-08-22T04:41:07.200Z,14.28
2022-08-22T04:43:39.814Z,14.25
2022-08-22T04:46:14.783Z,14.22
2022-08-22T04:48:45.871Z,14.19
2022-08-22T04:51:21.933Z,14.16
2022-08-22T04:54:05.485Z,14.15
2022-08-22T04:56:43.251Z,14.16
2022-08-22T04:59:16.403Z,14.16
2022-08-22T05:01:47.759Z,14.19
2022-08-22T05:04:21.411Z,14.20
2022-08-22T05:06:53.585Z,14.18
2022-08-22T05:09:27.758Z,14.19
2022-08-22T05:12:01.222Z,14.20
2022-08-22T05:14:37.334Z,14.20
2022-08-22T05:17:09.695Z,14.21
2022-08-22T05:19:40.818Z,14.23
2022-08-22T05:22:16.349Z,14.26
2022-08-22T05:24:48.638Z,14.29
2022-08-22T05:27:20.752Z,14.31
2022-08-22T05:29:51.645Z,14.34
2022-08-22T05:32:24.455Z,14.38
2022-08-22T05:34:55.773Z,14.43
2022-08-22T05:37:29.626Z,14.48
2022-08-22T05:39:59.999Z,14.52
2022-08-22T05:42:32.651Z,14.57
2022-08-22T05:45:02.567Z,14.63
2022-08-22T05:47:37.688Z,14.69
2022-08-22T05:50:11.934Z,14.76
2022-08-22T05:52:51.873Z,14.84
2022-08-22T05:55:27.177Z,14.92
2022-08-22T05:58:13.799Z,15.04
2022-08-22T06:00:44.267Z,15.12
2022-08-22T06:03:19.089Z,15.21
2022-08-22T06:05:50.866Z,15.28
2022-08-22T06:08:23.940Z,15.36
2022-08-22T06:10:56.231Z,15.45
2022-08-22T06:13:33.014Z,15.55
2022-08-22T06:16:08.358Z,15.62
2022-08-22T06:18:41.849Z,15.72
2022-08-22T06:21:13.501Z,15.80
2022-08-22T06:23:46.894Z,15.88
2022-08-22T06:26:20.463Z,15.97
2022-08-22T06:28:55.093Z,16.06
2022-08-22T06:31:28.075Z,16.15
2022-08-22T06:34:01.148Z,16.22
2022-08-22T06:36:30.837Z,16.33
2022-08-22T06:39:17.283Z,16.43
2022-08-22T06:41:51.434Z,16.50
2022-08-22T06:44:22.957Z,16.57
2022-08-22T06:46:55.022Z,16.65
2022-08-22T06:49:25.848Z,16.76
2022-08-22T06:51:59.343Z,16.85
2022-08-22T06:54:34.276Z,16.97
2022-08-22T06:57:06.238Z,17.12
2022-08-22T06:59:39.181Z,17.29
2022-08-22T07:02:17.460Z,17.43
2022-08-22T07:04:50.039Z,17.55
2022-08-22T07:07:19.778Z,17.66
2022-08-22T07:09:55.225Z,17.74
2022-08-22T07:12:29.675Z,17.81
2022-08-22T07:15:11.254Z,17.94
2022-08-22T07:17:49.599Z,18.07
2022-08-22T07:20:25.581Z,18.21
2022-08-22T07:22:55.929Z,18.37
2022-08-22T07:25:24.577Z,18.60
2022-08-22T07:28:08.518Z,18.80
2022-08-22T07:30:53.959Z,19.08
2022-08-22T07:33:35.503Z,19.32
2022-08-22T07:36:18.548Z,19.57
2022-08-22T07:38:55.862Z,19.81
2022-08-22T07:41:26.723Z,20.02
2022-08-22T07:44:01.110Z,20.24
2022-08-22T07:46:36.582Z,20.37
2022-08-22T07:49:14.540Z,20.60
2022-08-22T07:51:45.977Z,20.77
2022-08-22T07:54:16.942Z,20.93
2022-08-22T07:56:50.981Z,21.14
2022-08-22T07:59:21.327Z,21.32
2022-08-22T08:01:56.893Z,21.53
2022-08-22T08:04:28.307Z,21.69
2022-08-22T08:07:00.026Z,21.85
2022-08-22T08:09:31.472Z,22.07
2022-08-22T08:12:00.658Z,22.32
2022-08-22T08:14:29.625Z,22.42
2022-08-22T08:17:03.242Z,22.52
2022-08-22T08:19:33.944Z,22.65
2022-08-22T08:22:04.755Z,22.71
2022-08-22T08:24:40.545Z,22.75
2022-08-22T08:27:32.470Z,22.75
2022-08-22T08:30:04.144Z,22.70
2022-08-22T08:32:35.625Z,22.68
2022-08-22T08:35:07.596Z,22.69
2022-08-22T08:37:44.680Z,22.72
2022-08-22T08:40:29.959Z,22.77
2022-08-22T08:43:29.676Z,22.82
2022-08-22T08:46:18.126Z,22.86
2022-08-22T08:49:08.129Z,22.88
2022-08-22T08:51:53.528Z,22.87
2022-08-22T08:54:43.294Z,22.89
2022-08-22T08:57:20.749Z,22.98
2022-08-22T09:00:00.287Z,22.98
2022-08-22T09:02:58.691Z,22.96
2022-08-22T09:05:56.179Z,22.93
2022-08-22T09:08:55.645Z,22.96
2022-08-22T09:11:51.981Z,23.03
2022-08-22T09:14:51.871Z,23.14
2022-08-22T09:17:36.897Z,23.28
2022-08-22T09:20:26.006Z,23.40
2022-08-22T09:23:41.263Z,23.51
2022-08-22T09:26:17.576Z,23.59
2022-08-22T09:28:54.754Z,23.60
2022-08-22T09:31:47.796Z,23.60
2022-08-22T09:34:25.555Z,23.65
2022-08-22T09:37:06.422Z,23.65
2022-08-22T09:39:45.753Z,23.73
2022-08-22T09:42:24.049Z,23.77
2022-08-22T09:45:20.389Z,23.83
2022-08-22T09:48:02.146Z,23.84
2022-08-22T09:50:47.879Z,23.90
2022-08-22T09:53:43.425Z,23.96
2022-08-22T09:56:26.121Z,24.02
2022-08-22T09:59:03.482Z,24.10
2022-08-22T10:01:39.969Z,24.13
2022-08-22T10:04:42.101Z,24.21
2022-08-22T10:07:27.953Z,24.23
2022-08-22T10:10:03.759Z,24.25
2022-08-22T10:12:36.735Z,24.32
2022-08-22T10:15:17.717Z,24.35
2022-08-22T10:18:00.861Z,24.42
2022-08-22T10:20:33.119Z,24.44
2022-08-22T10:23:15.626Z,24.52
2022-08-22T10:25:48.007Z,24.61
2022-08-22T10:28:32.275Z,24.63
2022-08-22T10:31:23.513Z,24.71
2022-08-22T10:34:08.899Z,24.76
2022-08-22T10:36:46.079Z,24.80
2022-08-22T10:39:22.610Z,24.85
2022-08-22T10:42:18.569Z,24.92
2022-08-22T10:44:59.173Z,24.92
2022-08-22T10:47:34.876Z,24.95
2022-08-22T10:50:13.227Z,25.01
2022-08-22T10:52:48.615Z,24.98
2022-08-22T10:55:22.076Z,24.99
2022-08-22T10:58:04.541Z,25.04
2022-08-22T11:00:46.164Z,25.01
2022-08-22T11:03:23.185Z,25.01
2022-08-22T11:05:54.398Z,25.01
2022-08-22T11:08:51.041Z,25.04
2022-08-22T11:11:32.694Z,25.05
2022-08-22T11:14:22.346Z,25.05
2022-08-22T11:17:00.613Z,25.06
2022-08-22T11:19:59.319Z,25.09
2022-08-22T11:22:34.581Z,25.09
2022-08-22T11:25:22.909Z,24.99
2022-08-22T11:28:25.295Z,24.99
2022-08-22T11:31:07.232Z,25.03
2022-08-22T11:33:47.360Z,25.00
2022-08-22T11:36:31.198Z,25.00
2022-08-22T11:39:17.898Z,24.99
2022-08-22T11:41:52.459Z,25.02
2022-08-22T11:44:27.497Z,25.02
2022-08-22T11:46:57.172Z,25.16
2022-08-22T11:49:48.860Z,25.14
2022-08-22T11:52:26.122Z,25.10
2022-08-22T11:55:16.538Z,25.06
2022-08-22T11:57:48.895Z,25.14
2022-08-22T12:00:24.340Z,25.11
2022-08-22T12:03:16.325Z,25.21
2022-08-22T12:05:48.331Z,25.27
2022-08-22T12:08:24.856Z,25.37
2022-08-22T12:11:00.854Z,25.44
2022-08-22T12:13:42.949Z,25.50
2022-08-22T12:16:18.192Z,25.59
2022-08-22T12:18:54.757Z,25.66
2022-08-22T12:21:46.420Z,25.78
2022-08-22T12:24:44.710Z,25.95
2022-08-22T12:27:41.332Z,26.02
2022-08-22T12:30:21.673Z,26.16
2022-08-22T12:33:27.299Z,26.32
2022-08-22T12:36:24.029Z,26.41
2022-08-22T12:39:15.389Z,26.43
2022-08-22T12:42:07.224Z,26.45
2022-08-22T12:44:41.506Z,26.59
2022-08-22T12:47:34.434Z,26.59
2022-08-22T12:50:17.130Z,26.67
2022-08-22T12:53:03.521Z,26.68
2022-08-22T12:55:48.690Z,26.77
2022-08-22T12:58:33.082Z,26.86
2022-08-22T13:01:08.265Z,26.98
2022-08-22T13:03:38.099Z,27.11
2022-08-22T13:06:22.307Z,27.24
2022-08-22T13:08:51.226Z,27.49
2022-08-22T13:11:23.146Z,27.53
2022-08-22T13:13:57.121Z,27.59
2022-08-22T13:16:36.903Z,27.62
2022-08-22T13:19:13.721Z,27.59
2022-08-22T13:21:46.491Z,27.65
2022-08-22T13:24:22.657Z,27.67
2022-08-22T13:27:09.972Z,27.67
2022-08-22T13:29:43.058Z,27.65
2022-08-22T13:32:23.451Z,27.62
2022-08-22T13:34:54.330Z,27.64
2022-08-22T13:37:29.903Z,27.59
2022-08-22T13:40:03.676Z,27.58
2022-08-22T13:42:34.356Z,27.56
2022-08-22T13:45:16.442Z,27.55
2022-08-22T13:47:52.892Z,27.54
2022-08-22T13:50:25.037Z,27.50
2022-08-22T13:53:02.102Z,27.46
2022-08-22T13:55:36.387Z,27.45
2022-08-22T13:58:12.002Z,27.45
2022-08-22T14:01:15.429Z,27.41
2022-08-22T14:03:50.340Z,27.36
2022-08-22T14:06:37.724Z,27.36
2022-08-22T14:09:17.300Z,27.37
2022-08-22T14:12:12.169Z,27.35
2022-08-22T14:14:43.406Z,27.33
2022-08-22T14:17:20.961Z,27.27
2022-08-22T14:19:59.722Z,27.21
2022-08-22T14:22:34.846Z,27.20
2022-08-22T14:25:07.658Z,27.20
2022-08-22T14:27:39.737Z,27.17
2022-08-22T14:30:15.492Z,27.17
2022-08-22T14:32:48.172Z,27.15
2022-08-22T14:35:31.392Z,27.17
2022-08-22T14:38:21.395Z,27.11
2022-08-22T14:40:58.711Z,27.08
2022-08-22T14:43:47.026Z,27.07
2022-08-22T14:46:23.528Z,27.03
2022-08-22T14:49:10.668Z,27.01
2022-08-22T14:51:50.877Z,26.99
2022-08-22T14:54:21.312Z,26.97
2022-08-22T14:56:52.658Z,26.96
2022-08-22T14:59:32.429Z,26.94
2022-08-22T15:02:06.840Z,26.91
2022-08-22T15:04:37.950Z,26.89
2022-08-22T15:07:08.519Z,26.93
2022-08-22T15:09:41.603Z,26.93
2022-08-22T15:12:24.555Z,26.92
2022-08-22T15:14:55.915Z,26.93
2022-08-22T15:17:50.930Z,26.93
2022-08-22T15:20:28.607Z,26.90
2022-08-22T15:23:03.244Z,26.94
2022-08-22T15:25:41.119Z,26.96
2022-08-22T15:28:20.189Z,26.99
2022-08-22T15:31:03.777Z,27.03
2022-08-22T15:33:35.256Z,27.10
2022-08-22T15:36:15.911Z,27.17
2022-08-22T15:38:48.298Z,27.17
2022-08-22T15:41:44.639Z,27.15
2022-08-22T15:44:32.608Z,27.13
2022-08-22T15:47:10.798Z,27.09
2022-08-22T15:49:55.548Z,27.08
2022-08-22T15:52:29.372Z,27.03
2022-08-22T15:55:22.814Z,27.02
2022-08-22T15:58:04.465Z,27.02
2022-08-22T16:00:43.352Z,27.01
2022-08-22T16:03:24.310Z,27.00
2022-08-22T16:05:55.801Z,26.98
2022-08-22T16:08:28.584Z,26.96
2022-08-22T16:11:32.416Z,26.95
2022-08-22T16:14:21.403Z,26.90
2022-08-22T16:17:23.900Z,26.88
2022-08-22T16:20:30.587Z,26.85
2022-08-22T16:23:08.767Z,26.87
2022-08-22T16:26:07.680Z,26.84
2022-08-22T16:29:03.842Z,26.78
2022-08-22T16:31:35.859Z,26.75
2022-08-22T16:34:22.829Z,26.73
2022-08-22T16:36:52.345Z,26.71
2022-08-22T16:39:36.612Z,26.70
2022-08-22T16:42:35.036Z,26.67
2022-08-22T16:45:31.096Z,26.62
2022-08-22T16:47:59.284Z,26.62
2022-08-22T16:50:33.081Z,26.59
2022-08-22T16:53:04.912Z,26.56
2022-08-22T16:55:56.242Z,26.54
2022-08-22T16:59:09.855Z,26.52
2022-08-22T17:02:12.153Z,26.46
2022-08-22T17:04:51.332Z,26.45
2022-08-22T17:07:33.746Z,26.38
2022-08-22T17:10:17.760Z,26.37
2022-08-22T17:12:59.139Z,26.34
2022-08-22T17:15:34.811Z,26.30
2022-08-22T17:18:20.151Z,26.29
2022-08-22T17:20:54.256Z,26.25
2022-08-22T17:23:35.667Z,26.18
2022-08-22T17:26:19.009Z,26.19
2022-08-22T17:29:02.200Z,26.09
2022-08-22T17:31:44.732Z,26.06
2022-08-22T17:34:29.995Z,25.99
2022-08-22T17:37:08.242Z,25.95
2022-08-22T17:40:03.785Z,25.90
2022-08-22T17:42:55.388Z,25.82
2022-08-22T17:45:31.428Z,25.72
2022-08-22T17:48:06.220Z,25.66
2022-08-22T17:50:41.030Z,25.63
2022-08-22T17:53:16.344Z,25.55
2022-08-22T17:55:58.841Z,25.50
2022-08-22T17:58:31.860Z,25.45
2022-08-22T18:01:14.708Z,25.41
2022-08-22T18:03:51.030Z,25.36
2022-08-22T18:06:25.134Z,25.33
2022-08-22T18:11:50.851Z,25.22
2022-08-22T18:14:30.606Z,25.19
2022-08-22T18:17:00.801Z,25.14
2022-08-22T18:19:43.143Z,25.11
2022-08-22T18:22:21.357Z,25.07
2022-08-22T18:25:00.685Z,25.00
2022-08-22T18:27:35.750Z,24.95
2022-08-22T18:30:17.533Z,24.91
2022-08-22T18:32:55.370Z,24.85
2022-08-22T18:35:29.307Z,24.81
2022-08-22T18:38:19.182Z,24.73
2022-08-22T18:40:52.602Z,24.68
2022-08-22T18:43:26.971Z,24.63
2022-08-22T18:46:03.907Z,24.59
2022-08-22T18:48:54.284Z,24.49
2022-08-22T18:51:30.719Z,24.39
2022-08-22T18:54:26.017Z,24.31
2022-08-22T18:56:59.941Z,24.28
2022-08-22T18:59:42.717Z,24.11
2022-08-22T19:02:50.659Z,24.04
2022-08-22T19:06:11.101Z,23.93
2022-08-22T19:09:11.853Z,23.85
2022-08-22T19:11:52.016Z,23.77
2022-08-22T19:14:35.162Z,23.68
2022-08-22T19:17:29.144Z,23.60
2022-08-22T19:20:31.396Z,23.50
2022-08-22T19:23:13.781Z,23.43
2022-08-22T19:26:25.743Z,23.29
2022-08-22T19:28:58.980Z,23.17
2022-08-22T19:31:44.384Z,23.08
2022-08-22T19:34:21.967Z,22.97
2022-08-22T19:37:33.017Z,22.86
2022-08-22T19:40:05.269Z,22.73
2022-08-22T19:42:36.408Z,22.61
2022-08-22T19:45:22.176Z,22.48
2022-08-22T19:48:00.373Z,22.37
2022-08-22T19:50:34.433Z,22.27
2022-08-22T19:53:24.303Z,22.20
2022-08-22T19:56:06.664Z,22.13
2022-08-22T19:58:50.315Z,22.08
2022-08-22T20:01:42.025Z,22.04
2022-08-22T20:04:23.817Z,21.99
2022-08-22T20:07:01.938Z,21.95
2022-08-22T20:09:44.234Z,21.93
2022-08-22T20:12:16.085Z,21.89
2022-08-22T20:14:46.898Z,21.87
2022-08-22T20:17:35.686Z,21.86
2022-08-22T20:20:27.992Z,21.83
2022-08-22T20:23:00.219Z,21.81
2022-08-22T20:25:42.228Z,21.79
2022-08-22T20:28:36.064Z,21.78
2022-08-22T20:31:10.246Z,21.76
2022-08-22T20:33:40.698Z,21.75
2022-08-22T20:36:27.848Z,21.74
2022-08-22T20:39:01.546Z,21.71
2022-08-22T20:41:35.522Z,21.69
2022-08-22T20:44:12.285Z,21.66
2022-08-22T20:46:55.808Z,21.65
2022-08-22T20:49:29.163Z,21.62
2022-08-22T20:51:59.740Z,21.59
2022-08-22T20:54:30.056Z,21.57
2022-08-22T20:57:01.829Z,21.55
2022-08-22T20:59:35.866Z,21.51
2022-08-22T21:02:14.603Z,21.48
2022-08-22T21:04:49.563Z,21.44
2022-08-22T21:07:37.756Z,21.42
2022-08-22T21:10:27.362Z,21.38
2022-08-22T21:13:04.904Z,21.31
2022-08-22T21:15:35.356Z,21.29
2022-08-22T21:18:03.969Z,21.25
2022-08-22T21:20:34.584Z,21.20
2022-08-22T21:23:04.204Z,21.17
2022-08-22T21:25:33.079Z,21.14
2022-08-22T21:28:02.158Z,21.08
2022-08-22T21:30:31.019Z,21.04
2022-08-22T21:32:58.703Z,21.00
2022-08-22T21:35:30.367Z,20.96
2022-08-22T21:37:59.310Z,20.89
2022-08-22T21:40:33.250Z,20.82
2022-08-22T21:43:07.333Z,20.74
2022-08-22T21:45:43.272Z,20.69
2022-08-22T21:48:47.967Z,20.65
2022-08-22T21:51:39.233Z,20.59
2022-08-22T21:54:35.579Z,20.54
2022-08-22T21:57:17.722Z,20.48
2022-08-22T21:59:51.992Z,20.42
2022-08-22T22:02:31.128Z,20.37
2022-08-22T22:05:00.703Z,20.31
2022-08-22T22:07:29.794Z,20.25
2022-08-22T22:09:57.387Z,20.23
2022-08-22T22:12:25.431Z,20.18
2022-08-22T22:14:54.799Z,20.14
2022-08-22T22:17:22.447Z,20.11
2022-08-22T22:19:50.434Z,20.08
2022-08-22T22:22:18.326Z,20.05
2022-08-22T22:24:45.918Z,20.01
2022-08-22T22:27:16.963Z,19.99
2022-08-22T22:29:44.932Z,19.96
2022-08-22T22:32:14.040Z,19.92
2022-08-22T22:34:42.679Z,19.89
2022-08-22T22:37:11.798Z,19.87
2022-08-22T22:39:40.161Z,19.85
2022-08-22T22:42:09.236Z,19.83
2022-08-22T22:44:37.022Z,19.79
2022-08-22T22:47:05.315Z,19.78
2022-08-22T22:49:34.817Z,19.74
2022-08-22T22:52:02.651Z,19.72
2022-08-22T22:54:32.162Z,19.69
2022-08-22T22:57:01.958Z,19.68
2022-08-22T22:59:29.535Z,19.65
2022-08-22T23:02:03.252Z,19.62
2022-08-22T23:04:32.112Z,19.61
2022-08-22T23:07:01.748Z,19.59
2022-08-22T23:09:38.112Z,19.56
2022-08-22T23:12:07.100Z,19.53
2022-08-22T23:14:35.354Z,19.50
2022-08-22T23:17:03.566Z,19.48
2022-08-22T23:19:31.868Z,19.47
2022-08-22T23:22:02.274Z,19.44
2022-08-22T23:24:31.414Z,19.44
2022-08-22T23:26:59.663Z,19.42
2022-08-22T23:29:27.659Z,19.40
2022-08-22T23:31:57.358Z,19.38
2022-08-22T23:34:27.172Z,19.34
2022-08-22T23:36:57.854Z,19.31
2022-08-22T23:39:28.697Z,19.27
2022-08-22T23:41:57.178Z,19.25
2022-08-22T23:44:28.117Z,19.20
2022-08-22T23:46:56.203Z,19.19
2022-08-22T23:49:23.810Z,19.17
2022-08-22T23:51:52.402Z,19.14
2022-08-22T23:54:20.328Z,19.11
2022-08-22T23:56:52.699Z,19.08
2022-08-22T23:59:22.791Z,19.06
